sensor_id;sensor_type;location;lat;lon;timestamp;temperature;humidity
20845;DHT22;10583;49.084;8.646;2023-04-24T00:00:53;11.80;99.90
20845;DHT22;10583;49.084;8.646;2023-04-24T00:03:21;11.70;99.90
20845;DHT22;10583;49.084;8.646;2023-04-24T00:05:50;11.60;99.90
20845;DHT22;10583;49.084;8.646;2023-04-24T00:08:17;11.60;99.90
20845;DHT22;10583;49.084;8.646;2023-04-24T00:10:44;11.60;99.90
20845;DHT22;10583;49.084;8.646;2023-04-24T00:13:11;11.60;99.90
20845;DHT22;10583;49.084;8.646;2023-04-24T00:15:37;11.60;99.90
20845;DHT22;10583;49.084;8.646;2023-04-24T00:18:05;11.50;99.90
20845;DHT22;10583;49.084;8.646;2023-04-24T00:20:31;11.50;99.90
20845;DHT22;10583;49.084;8.646;2023-04-24T00:23:00;11.50;99.90
20845;DHT22;10583;49.084;8.646;2023-04-24T00:25:26;11.60;99.90
20845;DHT22;10583;49.084;8.646;2023-04-24T00:27:53;11.60;99.90
20845;DHT22;10583;49.084;8.646;2023-04-24T00:30:20;11.60;99.90
20845;DHT22;10583;49.084;8.646;2023-04-24T00:32:47;11.60;99.90
20845;DHT22;10583;49.084;8.646;2023-04-24T00:35:13;11.60;99.90
20845;DHT22;10583;49.084;8.646;2023-04-24T00:37:40;11.60;99.90
20845;DHT22;10583;49.084;8.646;2023-04-24T00:40:10;11.60;99.90
20845;DHT22;10583;49.084;8.646;2023-04-24T00:42:37;11.60;99.90
20845;DHT22;10583;49.084;8.646;2023-04-24T00:45:06;11.60;99.90
20845;DHT22;10583;49.084;8.646;2023-04-24T00:47:33;11.60;99.90
20845;DHT22;10583;49.084;8.646;2023-04-24T00:50:01;11.60;99.90
20845;DHT22;10583;49.084;8.646;2023-04-24T00:52:28;11.70;99.90
20845;DHT22;10583;49.084;8.646;2023-04-24T00:54:56;11.70;99.90
20845;DHT22;10583;49.084;8.646;2023-04-24T00:57:24;11.70;99.90
20845;DHT22;10583;49.084;8.646;2023-04-24T00:59:52;11.70;99.90
20845;DHT22;10583;49.084;8.646;2023-04-24T01:02:19;11.70;99.90
20845;DHT22;10583;49.084;8.646;2023-04-24T01:04:46;11.80;99.90
20845;DHT22;10583;49.084;8.646;2023-04-24T01:07:13;11.70;99.90
20845;DHT22;10583;49.084;8.646;2023-04-24T01:09:40;11.70;99.90
20845;DHT22;10583;49.084;8.646;2023-04-24T01:12:07;11.70;99.90
20845;DHT22;10583;49.084;8.646;2023-04-24T01:14:36;11.70;99.90
20845;DHT22;10583;49.084;8.646;2023-04-24T01:17:03;11.70;99.90
20845;DHT22;10583;49.084;8.646;2023-04-24T01:19:30;11.70;99.90
20845;DHT22;10583;49.084;8.646;2023-04-24T01:21:58;11.60;99.90
20845;DHT22;10583;49.084;8.646;2023-04-24T01:24:30;11.60;99.90
20845;DHT22;10583;49.084;8.646;2023-04-24T01:26:56;11.60;99.90
20845;DHT22;10583;49.084;8.646;2023-04-24T01:29:23;11.60;99.90
20845;DHT22;10583;49.084;8.646;2023-04-24T01:31:50;11.60;99.90
20845;DHT22;10583;49.084;8.646;2023-04-24T01:34:17;11.60;99.90
20845;DHT22;10583;49.084;8.646;2023-04-24T01:36:45;11.60;99.90
20845;DHT22;10583;49.084;8.646;2023-04-24T01:39:12;11.60;99.90
20845;DHT22;10583;49.084;8.646;2023-04-24T01:41:42;11.60;99.90
20845;DHT22;10583;49.084;8.646;2023-04-24T01:44:08;11.60;99.90
20845;DHT22;10583;49.084;8.646;2023-04-24T01:46:35;11.60;99.90
20845;DHT22;10583;49.084;8.646;2023-04-24T01:49:02;11.60;99.90
20845;DHT22;10583;49.084;8.646;2023-04-24T01:51:29;11.60;99.90
20845;DHT22;10583;49.084;8.646;2023-04-24T01:53:57;11.60;99.90
20845;DHT22;10583;49.084;8.646;2023-04-24T01:56:24;11.60;99.90
20845;DHT22;10583;49.084;8.646;2023-04-24T01:58:53;11.70;99.90
20845;DHT22;10583;49.084;8.646;2023-04-24T02:01:20;11.70;99.90
20845;DHT22;10583;49.084;8.646;2023-04-24T02:03:47;11.80;99.90
20845;DHT22;10583;49.084;8.646;2023-04-24T02:06:14;11.80;99.90
20845;DHT22;10583;49.084;8.646;2023-04-24T02:08:41;11.90;99.90
20845;DHT22;10583;49.084;8.646;2023-04-24T02:11:08;11.90;99.90
20845;DHT22;10583;49.084;8.646;2023-04-24T02:13:35;11.90;99.90
20845;DHT22;10583;49.084;8.646;2023-04-24T02:16:03;11.90;99.90
20845;DHT22;10583;49.084;8.646;2023-04-24T02:18:30;11.80;99.90
20845;DHT22;10583;49.084;8.646;2023-04-24T02:20:57;11.80;99.90
20845;DHT22;10583;49.084;8.646;2023-04-24T02:23:23;11.80;99.90
20845;DHT22;10583;49.084;8.646;2023-04-24T02:25:50;11.70;99.90
20845;DHT22;10583;49.084;8.646;2023-04-24T02:28:29;11.60;99.90
20845;DHT22;10583;49.084;8.646;2023-04-24T02:30:56;11.50;99.90
20845;DHT22;10583;49.084;8.646;2023-04-24T02:33:24;11.40;99.90
20845;DHT22;10583;49.084;8.646;2023-04-24T02:35:50;11.40;99.90
20845;DHT22;10583;49.084;8.646;2023-04-24T02:38:17;11.40;99.90
20845;DHT22;10583;49.084;8.646;2023-04-24T02:40:44;11.50;99.90
20845;DHT22;10583;49.084;8.646;2023-04-24T02:43:10;11.50;99.90
20845;DHT22;10583;49.084;8.646;2023-04-24T02:45:37;11.50;99.90
20845;DHT22;10583;49.084;8.646;2023-04-24T02:48:04;11.60;99.90
20845;DHT22;10583;49.084;8.646;2023-04-24T02:50:32;11.60;99.90
20845;DHT22;10583;49.084;8.646;2023-04-24T02:52:59;11.70;99.90
20845;DHT22;10583;49.084;8.646;2023-04-24T02:55:25;11.70;99.90
20845;DHT22;10583;49.084;8.646;2023-04-24T02:57:52;11.70;99.90
20845;DHT22;10583;49.084;8.646;2023-04-24T03:00:30;11.70;99.90
20845;DHT22;10583;49.084;8.646;2023-04-24T03:02:57;11.70;99.90
20845;DHT22;10583;49.084;8.646;2023-04-24T03:05:23;11.80;99.90
20845;DHT22;10583;49.084;8.646;2023-04-24T03:07:51;11.70;99.90
20845;DHT22;10583;49.084;8.646;2023-04-24T03:10:19;11.80;99.90
20845;DHT22;10583;49.084;8.646;2023-04-24T03:12:45;11.80;99.90
20845;DHT22;10583;49.084;8.646;2023-04-24T03:15:12;11.80;99.90
20845;DHT22;10583;49.084;8.646;2023-04-24T03:17:39;11.80;99.90
20845;DHT22;10583;49.084;8.646;2023-04-24T03:20:07;11.80;99.90
20845;DHT22;10583;49.084;8.646;2023-04-24T03:22:34;11.60;99.90
20845;DHT22;10583;49.084;8.646;2023-04-24T03:25:02;11.50;99.90
20845;DHT22;10583;49.084;8.646;2023-04-24T03:27:29;11.40;99.90
20845;DHT22;10583;49.084;8.646;2023-04-24T03:29:56;11.40;99.90
20845;DHT22;10583;49.084;8.646;2023-04-24T03:32:23;11.30;99.90
20845;DHT22;10583;49.084;8.646;2023-04-24T03:34:50;11.20;99.90
20845;DHT22;10583;49.084;8.646;2023-04-24T03:37:17;11.20;99.90
20845;DHT22;10583;49.084;8.646;2023-04-24T03:39:44;11.10;99.90
20845;DHT22;10583;49.084;8.646;2023-04-24T03:42:12;11.00;99.90
20845;DHT22;10583;49.084;8.646;2023-04-24T03:44:38;10.70;99.90
20845;DHT22;10583;49.084;8.646;2023-04-24T03:47:05;10.60;99.90
20845;DHT22;10583;49.084;8.646;2023-04-24T03:49:32;10.50;99.90
20845;DHT22;10583;49.084;8.646;2023-04-24T03:51:58;10.40;99.90
20845;DHT22;10583;49.084;8.646;2023-04-24T03:54:25;10.40;99.90
20845;DHT22;10583;49.084;8.646;2023-04-24T03:56:52;10.40;99.90
20845;DHT22;10583;49.084;8.646;2023-04-24T03:59:20;10.30;99.90
20845;DHT22;10583;49.084;8.646;2023-04-24T04:01:47;10.30;99.90
20845;DHT22;10583;49.084;8.646;2023-04-24T04:04:14;10.20;99.90
20845;DHT22;10583;49.084;8.646;2023-04-24T04:06:40;10.30;99.90
20845;DHT22;10583;49.084;8.646;2023-04-24T04:09:07;10.30;99.90
20845;DHT22;10583;49.084;8.646;2023-04-24T04:11:34;10.20;99.90
20845;DHT22;10583;49.084;8.646;2023-04-24T04:14:01;10.20;99.90
20845;DHT22;10583;49.084;8.646;2023-04-24T04:16:29;10.20;99.90
20845;DHT22;10583;49.084;8.646;2023-04-24T04:18:56;10.20;99.90
20845;DHT22;10583;49.084;8.646;2023-04-24T04:21:24;10.20;99.90
20845;DHT22;10583;49.084;8.646;2023-04-24T04:23:52;10.10;99.90
20845;DHT22;10583;49.084;8.646;2023-04-24T04:26:18;10.00;99.90
20845;DHT22;10583;49.084;8.646;2023-04-24T04:28:46;9.90;99.90
20845;DHT22;10583;49.084;8.646;2023-04-24T04:31:14;9.80;99.90
20845;DHT22;10583;49.084;8.646;2023-04-24T04:33:51;9.80;99.90
20845;DHT22;10583;49.084;8.646;2023-04-24T04:36:18;9.90;99.90
20845;DHT22;10583;49.084;8.646;2023-04-24T04:38:45;9.90;99.90
20845;DHT22;10583;49.084;8.646;2023-04-24T04:41:12;10.00;99.90
20845;DHT22;10583;49.084;8.646;2023-04-24T04:43:38;10.00;99.90
20845;DHT22;10583;49.084;8.646;2023-04-24T04:46:06;9.90;99.90
20845;DHT22;10583;49.084;8.646;2023-04-24T04:48:33;10.00;99.90
20845;DHT22;10583;49.084;8.646;2023-04-24T04:51:01;10.00;99.90
20845;DHT22;10583;49.084;8.646;2023-04-24T04:53:28;10.00;99.90
20845;DHT22;10583;49.084;8.646;2023-04-24T04:55:55;10.00;99.90
20845;DHT22;10583;49.084;8.646;2023-04-24T04:58:23;9.90;99.90
20845;DHT22;10583;49.084;8.646;2023-04-24T05:00:49;9.90;99.90
20845;DHT22;10583;49.084;8.646;2023-04-24T05:03:16;9.90;99.90
20845;DHT22;10583;49.084;8.646;2023-04-24T05:05:43;9.90;99.90
20845;DHT22;10583;49.084;8.646;2023-04-24T05:08:11;9.90;99.90
20845;DHT22;10583;49.084;8.646;2023-04-24T05:10:37;9.90;99.90
20845;DHT22;10583;49.084;8.646;2023-04-24T05:13:04;9.90;99.90
20845;DHT22;10583;49.084;8.646;2023-04-24T05:15:31;9.90;99.90
20845;DHT22;10583;49.084;8.646;2023-04-24T05:17:57;9.80;99.90
20845;DHT22;10583;49.084;8.646;2023-04-24T05:20:24;9.90;99.90
20845;DHT22;10583;49.084;8.646;2023-04-24T05:22:51;10.00;99.90
20845;DHT22;10583;49.084;8.646;2023-04-24T05:25:19;10.10;99.90
20845;DHT22;10583;49.084;8.646;2023-04-24T05:27:46;10.20;99.90
20845;DHT22;10583;49.084;8.646;2023-04-24T05:30:13;10.40;99.90
20845;DHT22;10583;49.084;8.646;2023-04-24T05:32:40;10.50;99.90
20845;DHT22;10583;49.084;8.646;2023-04-24T05:35:08;10.70;99.90
20845;DHT22;10583;49.084;8.646;2023-04-24T05:37:34;10.70;99.90
20845;DHT22;10583;49.084;8.646;2023-04-24T05:40:01;10.80;99.90
20845;DHT22;10583;49.084;8.646;2023-04-24T05:42:31;10.90;99.90
20845;DHT22;10583;49.084;8.646;2023-04-24T05:44:58;11.00;99.90
20845;DHT22;10583;49.084;8.646;2023-04-24T05:47:25;11.20;99.90
20845;DHT22;10583;49.084;8.646;2023-04-24T05:49:52;11.40;99.90
20845;DHT22;10583;49.084;8.646;2023-04-24T05:52:26;11.60;99.90
20845;DHT22;10583;49.084;8.646;2023-04-24T05:54:53;11.70;99.90
20845;DHT22;10583;49.084;8.646;2023-04-24T05:57:19;11.90;99.90
20845;DHT22;10583;49.084;8.646;2023-04-24T05:59:47;12.10;99.90
20845;DHT22;10583;49.084;8.646;2023-04-24T06:02:14;11.90;99.90
20845;DHT22;10583;49.084;8.646;2023-04-24T06:04:41;12.00;99.90
20845;DHT22;10583;49.084;8.646;2023-04-24T06:07:10;12.20;99.90
20845;DHT22;10583;49.084;8.646;2023-04-24T06:09:36;12.50;99.90
20845;DHT22;10583;49.084;8.646;2023-04-24T06:12:03;12.60;99.90
20845;DHT22;10583;49.084;8.646;2023-04-24T06:14:30;12.90;99.90
20845;DHT22;10583;49.084;8.646;2023-04-24T06:16:58;13.10;99.90
20845;DHT22;10583;49.084;8.646;2023-04-24T06:19:25;13.00;99.90
20845;DHT22;10583;49.084;8.646;2023-04-24T06:21:51;12.80;99.90
20845;DHT22;10583;49.084;8.646;2023-04-24T06:24:18;12.60;99.90
20845;DHT22;10583;49.084;8.646;2023-04-24T06:26:45;12.40;99.90
20845;DHT22;10583;49.084;8.646;2023-04-24T06:29:11;12.20;99.90
20845;DHT22;10583;49.084;8.646;2023-04-24T06:31:38;12.00;99.90
20845;DHT22;10583;49.084;8.646;2023-04-24T06:34:06;12.00;99.90
20845;DHT22;10583;49.084;8.646;2023-04-24T06:36:34;11.90;99.90
20845;DHT22;10583;49.084;8.646;2023-04-24T06:39:01;11.90;99.90
20845;DHT22;10583;49.084;8.646;2023-04-24T06:41:28;11.90;99.90
20845;DHT22;10583;49.084;8.646;2023-04-24T06:43:55;11.80;99.90
20845;DHT22;10583;49.084;8.646;2023-04-24T06:46:22;11.70;99.90
20845;DHT22;10583;49.084;8.646;2023-04-24T06:48:51;11.70;99.90
20845;DHT22;10583;49.084;8.646;2023-04-24T06:51:22;11.60;99.90
20845;DHT22;10583;49.084;8.646;2023-04-24T06:53:49;11.70;99.90
20845;DHT22;10583;49.084;8.646;2023-04-24T06:56:16;11.80;99.90
20845;DHT22;10583;49.084;8.646;2023-04-24T06:58:43;12.10;99.90
20845;DHT22;10583;49.084;8.646;2023-04-24T07:01:10;12.10;99.90
20845;DHT22;10583;49.084;8.646;2023-04-24T07:03:37;12.20;99.90
20845;DHT22;10583;49.084;8.646;2023-04-24T07:06:05;12.50;99.90
20845;DHT22;10583;49.084;8.646;2023-04-24T07:08:33;12.60;99.90
20845;DHT22;10583;49.084;8.646;2023-04-24T07:11:02;12.70;99.90
20845;DHT22;10583;49.084;8.646;2023-04-24T07:13:29;12.80;99.90
20845;DHT22;10583;49.084;8.646;2023-04-24T07:15:56;13.00;99.90
20845;DHT22;10583;49.084;8.646;2023-04-24T07:18:23;13.20;99.90
20845;DHT22;10583;49.084;8.646;2023-04-24T07:20:49;13.00;99.90
20845;DHT22;10583;49.084;8.646;2023-04-24T07:23:16;12.80;99.90
20845;DHT22;10583;49.084;8.646;2023-04-24T07:25:44;12.70;99.90
20845;DHT22;10583;49.084;8.646;2023-04-24T07:28:12;12.90;99.90
20845;DHT22;10583;49.084;8.646;2023-04-24T07:30:39;12.90;99.90
20845;DHT22;10583;49.084;8.646;2023-04-24T07:33:05;13.00;99.90
20845;DHT22;10583;49.084;8.646;2023-04-24T07:35:33;12.80;99.90
20845;DHT22;10583;49.084;8.646;2023-04-24T07:37:59;12.80;99.90
20845;DHT22;10583;49.084;8.646;2023-04-24T07:40:26;12.50;99.90
20845;DHT22;10583;49.084;8.646;2023-04-24T07:42:54;12.30;99.90
20845;DHT22;10583;49.084;8.646;2023-04-24T07:45:21;12.20;99.90
20845;DHT22;10583;49.084;8.646;2023-04-24T07:47:48;12.10;99.90
20845;DHT22;10583;49.084;8.646;2023-04-24T07:50:15;12.40;99.90
20845;DHT22;10583;49.084;8.646;2023-04-24T07:52:41;12.40;99.90
20845;DHT22;10583;49.084;8.646;2023-04-24T07:55:08;12.60;99.90
20845;DHT22;10583;49.084;8.646;2023-04-24T07:57:35;12.90;99.90
20845;DHT22;10583;49.084;8.646;2023-04-24T08:00:05;13.10;99.90
20845;DHT22;10583;49.084;8.646;2023-04-24T08:02:32;13.30;99.90
20845;DHT22;10583;49.084;8.646;2023-04-24T08:04:58;13.00;99.90
20845;DHT22;10583;49.084;8.646;2023-04-24T08:07:25;12.50;99.90
20845;DHT22;10583;49.084;8.646;2023-04-24T08:09:52;12.10;99.90
20845;DHT22;10583;49.084;8.646;2023-04-24T08:12:19;11.80;99.90
20845;DHT22;10583;49.084;8.646;2023-04-24T08:14:45;11.50;99.90
20845;DHT22;10583;49.084;8.646;2023-04-24T08:17:13;11.20;99.90
20845;DHT22;10583;49.084;8.646;2023-04-24T08:19:40;11.00;99.90
20845;DHT22;10583;49.084;8.646;2023-04-24T08:22:13;10.80;99.90
20845;DHT22;10583;49.084;8.646;2023-04-24T08:24:39;10.80;99.90
20845;DHT22;10583;49.084;8.646;2023-04-24T08:27:06;10.90;99.90
20845;DHT22;10583;49.084;8.646;2023-04-24T08:29:33;11.00;99.90
20845;DHT22;10583;49.084;8.646;2023-04-24T08:31:59;11.00;99.90
20845;DHT22;10583;49.084;8.646;2023-04-24T08:34:27;11.50;99.90
20845;DHT22;10583;49.084;8.646;2023-04-24T08:36:54;11.90;99.90
20845;DHT22;10583;49.084;8.646;2023-04-24T08:39:21;12.00;99.90
20845;DHT22;10583;49.084;8.646;2023-04-24T08:41:48;12.80;99.90
20845;DHT22;10583;49.084;8.646;2023-04-24T08:44:15;13.20;99.90
20845;DHT22;10583;49.084;8.646;2023-04-24T08:46:43;13.10;99.90
20845;DHT22;10583;49.084;8.646;2023-04-24T08:49:11;12.70;99.90
20845;DHT22;10583;49.084;8.646;2023-04-24T08:51:39;12.60;99.90
20845;DHT22;10583;49.084;8.646;2023-04-24T08:54:07;12.50;99.90
20845;DHT22;10583;49.084;8.646;2023-04-24T08:56:34;12.40;99.90
20845;DHT22;10583;49.084;8.646;2023-04-24T08:59:04;12.50;99.90
20845;DHT22;10583;49.084;8.646;2023-04-24T09:01:32;12.80;99.90
20845;DHT22;10583;49.084;8.646;2023-04-24T09:04:02;13.40;99.90
20845;DHT22;10583;49.084;8.646;2023-04-24T09:06:29;14.30;99.90
20845;DHT22;10583;49.084;8.646;2023-04-24T09:09:00;15.00;99.90
20845;DHT22;10583;49.084;8.646;2023-04-24T09:11:27;15.20;99.90
20845;DHT22;10583;49.084;8.646;2023-04-24T09:13:54;14.90;99.90
20845;DHT22;10583;49.084;8.646;2023-04-24T09:16:21;14.50;99.90
20845;DHT22;10583;49.084;8.646;2023-04-24T09:18:49;14.40;99.90
20845;DHT22;10583;49.084;8.646;2023-04-24T09:21:16;14.60;99.90
20845;DHT22;10583;49.084;8.646;2023-04-24T09:23:43;14.50;99.90
20845;DHT22;10583;49.084;8.646;2023-04-24T09:26:11;14.60;99.90
20845;DHT22;10583;49.084;8.646;2023-04-24T09:28:41;14.30;99.90
20845;DHT22;10583;49.084;8.646;2023-04-24T09:31:11;13.60;99.90
20845;DHT22;10583;49.084;8.646;2023-04-24T09:33:39;13.20;99.90
20845;DHT22;10583;49.084;8.646;2023-04-24T09:36:06;13.10;99.90
20845;DHT22;10583;49.084;8.646;2023-04-24T09:38:34;12.90;99.90
20845;DHT22;10583;49.084;8.646;2023-04-24T09:41:01;12.80;99.90
20845;DHT22;10583;49.084;8.646;2023-04-24T09:43:30;12.50;99.90
20845;DHT22;10583;49.084;8.646;2023-04-24T09:45:59;12.10;99.90
20845;DHT22;10583;49.084;8.646;2023-04-24T09:48:33;11.80;99.90
20845;DHT22;10583;49.084;8.646;2023-04-24T09:51:00;11.70;99.90
20845;DHT22;10583;49.084;8.646;2023-04-24T09:53:28;11.70;99.90
20845;DHT22;10583;49.084;8.646;2023-04-24T09:55:55;11.80;99.90
20845;DHT22;10583;49.084;8.646;2023-04-24T09:58:25;11.70;99.90
20845;DHT22;10583;49.084;8.646;2023-04-24T10:00:55;11.70;99.90
20845;DHT22;10583;49.084;8.646;2023-04-24T10:03:24;11.70;99.90
20845;DHT22;10583;49.084;8.646;2023-04-24T10:05:52;11.80;99.90
20845;DHT22;10583;49.084;8.646;2023-04-24T10:08:20;12.00;99.90
20845;DHT22;10583;49.084;8.646;2023-04-24T10:10:47;13.10;99.90
20845;DHT22;10583;49.084;8.646;2023-04-24T10:13:14;14.00;99.90
20845;DHT22;10583;49.084;8.646;2023-04-24T10:15:41;15.10;99.90
20845;DHT22;10583;49.084;8.646;2023-04-24T10:18:10;15.40;99.90
20845;DHT22;10583;49.084;8.646;2023-04-24T10:20:39;15.30;99.90
20845;DHT22;10583;49.084;8.646;2023-04-24T10:23:06;14.90;99.90
20845;DHT22;10583;49.084;8.646;2023-04-24T10:25:33;14.70;99.90
20845;DHT22;10583;49.084;8.646;2023-04-24T10:28:01;14.60;99.90
20845;DHT22;10583;49.084;8.646;2023-04-24T10:30:29;14.50;99.90
20845;DHT22;10583;49.084;8.646;2023-04-24T10:33:00;14.10;99.90
20845;DHT22;10583;49.084;8.646;2023-04-24T10:35:30;14.10;99.90
20845;DHT22;10583;49.084;8.646;2023-04-24T10:38:01;13.90;99.90
20845;DHT22;10583;49.084;8.646;2023-04-24T10:40:31;13.60;99.90
20845;DHT22;10583;49.084;8.646;2023-04-24T10:42:59;13.00;99.90
20845;DHT22;10583;49.084;8.646;2023-04-24T10:45:26;12.80;99.90
20845;DHT22;10583;49.084;8.646;2023-04-24T10:47:59;12.40;99.90
20845;DHT22;10583;49.084;8.646;2023-04-24T10:50:43;12.20;99.90
20845;DHT22;10583;49.084;8.646;2023-04-24T10:53:14;12.10;99.90
20845;DHT22;10583;49.084;8.646;2023-04-24T10:55:43;11.80;99.90
20845;DHT22;10583;49.084;8.646;2023-04-24T10:58:10;11.80;99.90
20845;DHT22;10583;49.084;8.646;2023-04-24T11:00:38;11.80;99.90
20845;DHT22;10583;49.084;8.646;2023-04-24T11:03:05;11.90;99.90
20845;DHT22;10583;49.084;8.646;2023-04-24T11:05:54;12.00;99.90
20845;DHT22;10583;49.084;8.646;2023-04-24T11:08:24;12.20;99.90
20845;DHT22;10583;49.084;8.646;2023-04-24T11:10:56;12.90;99.90
20845;DHT22;10583;49.084;8.646;2023-04-24T11:13:24;14.20;99.90
20845;DHT22;10583;49.084;8.646;2023-04-24T11:16:14;14.60;99.90
20845;DHT22;10583;49.084;8.646;2023-04-24T11:18:42;14.50;99.90
20845;DHT22;10583;49.084;8.646;2023-04-24T11:21:13;14.20;99.90
20845;DHT22;10583;49.084;8.646;2023-04-24T11:23:39;13.90;99.90
20845;DHT22;10583;49.084;8.646;2023-04-24T11:26:10;13.70;99.90
20845;DHT22;10583;49.084;8.646;2023-04-24T11:28:44;13.70;99.90
20845;DHT22;10583;49.084;8.646;2023-04-24T11:31:39;13.40;99.90
20845;DHT22;10583;49.084;8.646;2023-04-24T11:34:08;13.40;99.90
20845;DHT22;10583;49.084;8.646;2023-04-24T11:36:36;13.20;99.90
20845;DHT22;10583;49.084;8.646;2023-04-24T11:39:04;13.20;99.90
20845;DHT22;10583;49.084;8.646;2023-04-24T11:41:30;13.10;99.90
20845;DHT22;10583;49.084;8.646;2023-04-24T11:43:57;12.80;99.90
20845;DHT22;10583;49.084;8.646;2023-04-24T11:46:27;12.60;99.90
20845;DHT22;10583;49.084;8.646;2023-04-24T11:48:55;12.40;99.90
20845;DHT22;10583;49.084;8.646;2023-04-24T11:51:22;12.30;99.90
20845;DHT22;10583;49.084;8.646;2023-04-24T11:53:50;12.30;99.90
20845;DHT22;10583;49.084;8.646;2023-04-24T11:56:17;12.20;99.90
20845;DHT22;10583;49.084;8.646;2023-04-24T11:58:45;12.10;99.90
20845;DHT22;10583;49.084;8.646;2023-04-24T12:01:12;12.20;99.90
20845;DHT22;10583;49.084;8.646;2023-04-24T12:03:39;12.20;99.90
20845;DHT22;10583;49.084;8.646;2023-04-24T12:06:09;12.10;99.90
20845;DHT22;10583;49.084;8.646;2023-04-24T12:08:37;12.10;99.90
20845;DHT22;10583;49.084;8.646;2023-04-24T12:11:06;12.10;99.90
20845;DHT22;10583;49.084;8.646;2023-04-24T12:13:33;12.20;99.90
20845;DHT22;10583;49.084;8.646;2023-04-24T12:16:03;12.50;99.90
20845;DHT22;10583;49.084;8.646;2023-04-24T12:18:30;13.20;99.90
20845;DHT22;10583;49.084;8.646;2023-04-24T12:21:16;13.80;99.90
20845;DHT22;10583;49.084;8.646;2023-04-24T12:23:43;13.80;99.90
20845;DHT22;10583;49.084;8.646;2023-04-24T12:26:12;13.70;99.90
20845;DHT22;10583;49.084;8.646;2023-04-24T12:28:39;14.00;99.90
20845;DHT22;10583;49.084;8.646;2023-04-24T12:31:06;13.70;99.90
20845;DHT22;10583;49.084;8.646;2023-04-24T12:33:34;13.80;99.90
20845;DHT22;10583;49.084;8.646;2023-04-24T12:36:01;14.20;99.90
20845;DHT22;10583;49.084;8.646;2023-04-24T12:38:29;13.90;99.90
20845;DHT22;10583;49.084;8.646;2023-04-24T12:41:03;13.70;99.90
20845;DHT22;10583;49.084;8.646;2023-04-24T12:43:31;13.30;99.90
20845;DHT22;10583;49.084;8.646;2023-04-24T12:45:58;12.90;99.90
20845;DHT22;10583;49.084;8.646;2023-04-24T12:48:25;12.60;99.90
20845;DHT22;10583;49.084;8.646;2023-04-24T12:50:52;12.90;99.90
20845;DHT22;10583;49.084;8.646;2023-04-24T12:53:19;13.30;99.90
20845;DHT22;10583;49.084;8.646;2023-04-24T12:55:45;13.50;99.90
20845;DHT22;10583;49.084;8.646;2023-04-24T12:58:18;13.50;99.90
20845;DHT22;10583;49.084;8.646;2023-04-24T13:00:46;13.70;99.90
20845;DHT22;10583;49.084;8.646;2023-04-24T13:03:13;13.60;99.90
20845;DHT22;10583;49.084;8.646;2023-04-24T13:05:40;13.90;99.90
20845;DHT22;10583;49.084;8.646;2023-04-24T13:08:07;13.80;99.90
20845;DHT22;10583;49.084;8.646;2023-04-24T13:10:34;14.00;99.90
20845;DHT22;10583;49.084;8.646;2023-04-24T13:13:00;14.00;99.90
20845;DHT22;10583;49.084;8.646;2023-04-24T13:15:27;13.70;99.90
20845;DHT22;10583;49.084;8.646;2023-04-24T13:17:55;13.70;99.90
20845;DHT22;10583;49.084;8.646;2023-04-24T13:20:22;13.80;99.90
20845;DHT22;10583;49.084;8.646;2023-04-24T13:22:49;13.80;99.90
20845;DHT22;10583;49.084;8.646;2023-04-24T13:25:15;13.80;99.90
20845;DHT22;10583;49.084;8.646;2023-04-24T13:27:43;14.00;99.90
20845;DHT22;10583;49.084;8.646;2023-04-24T13:30:11;13.90;99.90
20845;DHT22;10583;49.084;8.646;2023-04-24T13:32:38;13.90;99.90
20845;DHT22;10583;49.084;8.646;2023-04-24T13:35:07;13.70;99.90
20845;DHT22;10583;49.084;8.646;2023-04-24T13:37:34;13.60;99.90
20845;DHT22;10583;49.084;8.646;2023-04-24T13:40:00;13.60;99.90
20845;DHT22;10583;49.084;8.646;2023-04-24T13:42:27;14.00;99.90
20845;DHT22;10583;49.084;8.646;2023-04-24T13:44:54;14.10;99.90
20845;DHT22;10583;49.084;8.646;2023-04-24T13:47:20;14.10;99.90
20845;DHT22;10583;49.084;8.646;2023-04-24T13:49:47;14.20;99.90
20845;DHT22;10583;49.084;8.646;2023-04-24T13:52:16;14.40;99.90
20845;DHT22;10583;49.084;8.646;2023-04-24T13:54:43;14.40;99.90
20845;DHT22;10583;49.084;8.646;2023-04-24T13:57:09;14.40;99.90
20845;DHT22;10583;49.084;8.646;2023-04-24T13:59:37;14.40;99.90
20845;DHT22;10583;49.084;8.646;2023-04-24T14:02:03;14.40;99.90
20845;DHT22;10583;49.084;8.646;2023-04-24T14:04:30;13.90;99.90
20845;DHT22;10583;49.084;8.646;2023-04-24T14:06:56;13.70;99.90
20845;DHT22;10583;49.084;8.646;2023-04-24T14:09:24;13.60;99.90
20845;DHT22;10583;49.084;8.646;2023-04-24T14:11:51;13.70;99.90
20845;DHT22;10583;49.084;8.646;2023-04-24T14:14:18;13.90;99.90
20845;DHT22;10583;49.084;8.646;2023-04-24T14:16:45;13.90;99.90
20845;DHT22;10583;49.084;8.646;2023-04-24T14:19:11;14.00;99.90
20845;DHT22;10583;49.084;8.646;2023-04-24T14:21:38;13.90;99.90
20845;DHT22;10583;49.084;8.646;2023-04-24T14:24:05;13.90;99.90
20845;DHT22;10583;49.084;8.646;2023-04-24T14:26:33;14.00;99.90
20845;DHT22;10583;49.084;8.646;2023-04-24T14:29:00;14.20;99.90
20845;DHT22;10583;49.084;8.646;2023-04-24T14:31:27;14.40;99.90
20845;DHT22;10583;49.084;8.646;2023-04-24T14:33:54;14.40;99.90
20845;DHT22;10583;49.084;8.646;2023-04-24T14:36:20;14.30;99.90
20845;DHT22;10583;49.084;8.646;2023-04-24T14:38:47;14.20;99.90
20845;DHT22;10583;49.084;8.646;2023-04-24T14:41:14;14.00;99.90
20845;DHT22;10583;49.084;8.646;2023-04-24T14:43:42;14.10;99.90
20845;DHT22;10583;49.084;8.646;2023-04-24T14:46:08;14.10;99.90
20845;DHT22;10583;49.084;8.646;2023-04-24T14:48:35;14.00;99.90
20845;DHT22;10583;49.084;8.646;2023-04-24T14:51:02;13.90;99.90
20845;DHT22;10583;49.084;8.646;2023-04-24T14:53:29;13.70;99.90
20845;DHT22;10583;49.084;8.646;2023-04-24T14:55:56;13.40;99.90
20845;DHT22;10583;49.084;8.646;2023-04-24T14:58:22;13.50;99.90
20845;DHT22;10583;49.084;8.646;2023-04-24T15:00:50;13.60;99.90
20845;DHT22;10583;49.084;8.646;2023-04-24T15:03:20;13.90;99.90
20845;DHT22;10583;49.084;8.646;2023-04-24T15:05:46;14.10;99.90
20845;DHT22;10583;49.084;8.646;2023-04-24T15:08:13;14.10;99.90
20845;DHT22;10583;49.084;8.646;2023-04-24T15:10:40;14.00;99.90
20845;DHT22;10583;49.084;8.646;2023-04-24T15:13:07;13.90;99.90
20845;DHT22;10583;49.084;8.646;2023-04-24T15:15:34;13.90;99.90
20845;DHT22;10583;49.084;8.646;2023-04-24T15:18:03;13.90;99.90
20845;DHT22;10583;49.084;8.646;2023-04-24T15:20:30;13.70;99.90
20845;DHT22;10583;49.084;8.646;2023-04-24T15:22:57;13.50;99.90
20845;DHT22;10583;49.084;8.646;2023-04-24T15:25:24;13.40;99.90
20845;DHT22;10583;49.084;8.646;2023-04-24T15:27:51;13.40;99.90
20845;DHT22;10583;49.084;8.646;2023-04-24T15:30:18;13.30;99.90
20845;DHT22;10583;49.084;8.646;2023-04-24T15:32:44;13.40;99.90
20845;DHT22;10583;49.084;8.646;2023-04-24T15:35:12;13.50;99.90